Terminal Aerodrome Forecast
Issued by NWS Bismarck, ND

Home | Current Version | Previous Version | Text Only | Print | Product List | Glossary On
Versions: 1 2 3 4 5 6 7 8 9 10 11 12 13 14 15 16 17 18 19 20 21 22
000
FTUS43 KBIS 260050 AAC
TAFBIS
TAF AMD
KBIS 260050Z 2601/2624 20004KT P6SM VCSH BKN045
      TEMPO 2601/2603 4SM -SN BKN035
     FM260500 28005KT P6SM BKN070
     FM260700 32013G21KT P6SM BKN030
     FM261300 30006KT P6SM BKN100
     FM261900 18008KT P6SM BKN050=

USA.gov is the U.S. government's official web portal to all federal, state and local government web resources and services.